Time;durP1;ratioP1;P1;durP2;ratioP2;P2;SDS_P1;SDS_P2;PMS_P1;PMS_P2;Temp;Humidity;BMP_temperature;BMP_pressure;BME280_temperature;BME280_humidity;BME280_pressure;Samples;Min_cycle;Max_cycle;Signal;HPM_P1;HPM_P2
2021/12/16 00:01:50;;;;;;;2.97;2.77;;;5.40;99.90;;;;;;5148144;27;20219;-50
2021/12/16 00:31:59;;;;;;;5.27;3.47;;;5.20;99.90;;;;;;5147135;27;20234;-56
2021/12/16 00:34:29;;;;;;;3.47;3.23;;;5.10;99.90;;;;;;5128283;27;20211;-55
2021/12/16 00:36:55;;;;;;;4.20;3.80;;;5.10;99.90;;;;;;5128870;27;20183;-58
2021/12/16 00:39:33;;;;;;;4.57;3.17;;;5.10;99.90;;;;;;5127608;27;20207;-45
2021/12/16 00:42:05;;;;;;;3.63;3.43;;;5.10;99.90;;;;;;5127885;27;20192;-48
2021/12/16 00:49:45;;;;;;;4.57;4.07;;;5.00;99.90;;;;;;5146894;27;20229;-47
2021/12/16 00:55:10;;;;;;;4.43;3.60;;;5.10;99.90;;;;;;5146153;27;20222;-48
2021/12/16 00:57:37;;;;;;;5.07;3.63;;;5.10;99.90;;;;;;5128686;27;20184;-52
2021/12/16 01:00:06;;;;;;;6.60;4.47;;;5.10;99.90;;;;;;5128723;27;20208;-50
2021/12/16 01:47:53;;;;;;;5.03;4.53;;;4.80;99.90;;;;;;5022936;28;20183;-57
2021/12/16 01:50:45;;;;;;;5.57;4.53;;;4.70;99.90;;;;;;5108759;27;20226;-58
2021/12/16 01:59:21;;;;;;;5.90;3.53;;;4.70;99.90;;;;;;5123277;27;20227;-55
2021/12/16 02:02:31;;;;;;;7.33;3.93;;;4.70;99.90;;;;;;5107941;27;20212;-46
2021/12/16 02:08:19;;;;;;;3.93;3.53;;;4.70;99.90;;;;;;5123211;27;20224;-51
2021/12/16 02:29:39;;;;;;;5.40;3.57;;;4.60;99.90;;;;;;5146475;27;20187;-52
2021/12/16 02:38:12;;;;;;;4.73;4.10;;;4.50;99.90;;;;;;5146760;27;20388;-44
2021/12/16 02:40:56;;;;;;;3.33;2.37;;;4.50;99.90;;;;;;5144201;27;20194;-50
2021/12/16 02:49:40;;;;;;;5.50;3.67;;;4.50;99.90;;;;;;5144954;27;20190;-45
2021/12/16 02:52:27;;;;;;;6.73;3.70;;;4.50;99.90;;;;;;5143238;27;20255;-45
2021/12/16 02:55:15;;;;;;;3.77;3.30;;;4.50;99.90;;;;;;5144562;27;20268;-47
2021/12/16 02:58:00;;;;;;;5.10;3.10;;;4.50;99.90;;;;;;5143542;27;20274;-45
2021/12/16 03:00:49;;;;;;;3.20;2.87;;;4.50;99.90;;;;;;5144480;27;20272;-55
2021/12/16 03:03:37;;;;;;;5.70;3.43;;;4.40;99.90;;;;;;5144340;27;20194;-48
2021/12/16 03:06:22;;;;;;;5.03;3.43;;;4.40;99.90;;;;;;5144121;27;20348;-53
2021/12/16 03:09:16;;;;;;;3.60;3.07;;;4.40;99.90;;;;;;5143877;27;20240;-44
2021/12/16 03:15:05;;;;;;;4.00;3.07;;;4.40;99.90;;;;;;5144773;27;20275;-52
2021/12/16 03:20:42;;;;;;;3.53;3.10;;;4.40;99.90;;;;;;5144973;27;20400;-48
2021/12/16 03:38:13;;;;;;;3.87;3.47;;;4.50;99.90;;;;;;5145975;27;20199;-58
2021/12/16 03:41:00;;;;;;;4.27;2.67;;;4.50;99.90;;;;;;5143219;27;20198;-56
2021/12/16 03:43:46;;;;;;;5.27;3.07;;;4.50;99.90;;;;;;5143683;27;20195;-49
2021/12/16 03:46:34;;;;;;;4.00;3.57;;;4.40;99.90;;;;;;5143435;27;20195;-50
2021/12/16 03:49:23;;;;;;;4.33;2.77;;;4.40;99.90;;;;;;5142946;27;20194;-50
2021/12/16 03:52:09;;;;;;;4.00;3.57;;;4.50;99.90;;;;;;5143236;27;20276;-48
2021/12/16 03:54:55;;;;;;;6.97;3.30;;;4.50;99.90;;;;;;5143130;27;20210;-56
2021/12/16 03:57:40;;;;;;;5.67;2.90;;;4.40;99.90;;;;;;5143300;27;20191;-48
2021/12/16 04:00:30;;;;;;;3.63;3.27;;;4.50;99.90;;;;;;5143854;27;20222;-53
2021/12/16 04:03:15;;;;;;;2.50;2.30;;;4.40;99.90;;;;;;5143409;27;20240;-46
2021/12/16 04:06:00;;;;;;;5.03;2.90;;;4.40;99.90;;;;;;5143166;27;20230;-53
2021/12/16 04:08:44;;;;;;;5.87;3.40;;;4.50;99.90;;;;;;5143917;27;20191;-50
2021/12/16 04:11:38;;;;;;;7.23;2.67;;;4.50;99.90;;;;;;5142964;27;20236;-46
2021/12/16 04:14:23;;;;;;;4.27;3.07;;;4.50;99.90;;;;;;5143920;27;20226;-58
2021/12/16 04:17:11;;;;;;;5.10;2.50;;;4.50;99.90;;;;;;5148321;27;20224;-58
2021/12/16 04:19:59;;;;;;;3.73;2.73;;;4.50;99.90;;;;;;5146879;27;20246;-55
2021/12/16 04:22:45;;;;;;;3.97;2.83;;;4.40;99.90;;;;;;5146723;27;20252;-52
2021/12/16 04:25:35;;;;;;;4.83;2.93;;;4.40;99.90;;;;;;5147619;27;20195;-57
2021/12/16 04:28:28;;;;;;;4.57;3.83;;;4.50;99.90;;;;;;5146979;27;20222;-49
2021/12/16 04:31:13;;;;;;;3.60;2.60;;;4.50;99.90;;;;;;5146834;27;20187;-50
2021/12/16 04:33:57;;;;;;;2.93;2.63;;;4.50;99.90;;;;;;5146866;27;20206;-51
2021/12/16 04:36:42;;;;;;;3.37;2.67;;;4.50;99.90;;;;;;5146931;27;20219;-55
2021/12/16 04:39:30;;;;;;;3.33;2.80;;;4.60;99.90;;;;;;5146774;27;20252;-56
2021/12/16 04:42:18;;;;;;;2.70;2.50;;;4.60;99.90;;;;;;5146505;27;20214;-55
2021/12/16 04:45:07;;;;;;;3.93;2.93;;;4.50;99.90;;;;;;5146157;27;20202;-54
2021/12/16 04:47:52;;;;;;;2.50;2.30;;;4.60;99.90;;;;;;5147688;27;20243;-50
2021/12/16 04:50:36;;;;;;;3.07;2.60;;;4.50;99.90;;;;;;5146364;27;20259;-56
2021/12/16 04:53:21;;;;;;;5.33;3.43;;;4.50;99.90;;;;;;5146050;27;20252;-51
2021/12/16 04:56:07;;;;;;;4.03;2.97;;;4.40;99.90;;;;;;5147244;27;20214;-55
2021/12/16 04:58:53;;;;;;;6.53;3.63;;;4.50;99.90;;;;;;5146568;27;20190;-56
2021/12/16 05:01:40;;;;;;;3.13;2.83;;;4.50;99.90;;;;;;5147158;27;20281;-46
2021/12/16 05:04:25;;;;;;;4.93;3.60;;;4.50;99.90;;;;;;5146121;27;20186;-55
2021/12/16 05:07:11;;;;;;;4.40;2.73;;;4.60;99.90;;;;;;5145864;27;20194;-51
2021/12/16 05:10:06;;;;;;;8.90;5.93;;;4.60;99.90;;;;;;5146231;27;20198;-54
2021/12/16 05:12:55;;;;;;;45.77;18.77;;;4.60;99.90;;;;;;5145901;27;20252;-49
2021/12/16 05:15:42;;;;;;;7.67;5.43;;;4.70;99.90;;;;;;5146445;27;20207;-50
2021/12/16 05:18:32;;;;;;;4.23;3.13;;;4.60;99.90;;;;;;5146715;27;20219;-56
2021/12/16 05:21:59;;;;;;;2.93;2.17;;;4.60;99.90;;;;;;5145638;27;20219;-51
2021/12/16 05:24:30;;;;;;;2.80;2.53;;;4.60;99.90;;;;;;5147445;27;20207;-51
2021/12/16 05:27:15;;;;;;;3.77;3.40;;;4.60;99.90;;;;;;5145396;27;20194;-52
2021/12/16 05:29:59;;;;;;;6.07;3.57;;;4.60;99.90;;;;;;5145943;27;20280;-52
2021/12/16 05:32:46;;;;;;;2.57;2.47;;;4.60;99.90;;;;;;5146450;27;20279;-49
2021/12/16 05:35:31;;;;;;;5.83;3.27;;;4.70;99.90;;;;;;5146410;27;20251;-51
2021/12/16 05:38:16;;;;;;;2.17;1.70;;;4.70;99.90;;;;;;5144861;27;20239;-55
2021/12/16 05:41:02;;;;;;;3.03;2.73;;;4.70;99.90;;;;;;5145058;27;20280;-51
2021/12/16 05:43:47;;;;;;;3.13;1.93;;;4.70;99.90;;;;;;5145960;27;20256;-51
2021/12/16 05:46:34;;;;;;;3.90;2.33;;;4.70;99.90;;;;;;5145425;27;20283;-46
2021/12/16 05:49:18;;;;;;;3.33;2.67;;;4.70;99.90;;;;;;5145487;27;20191;-49
2021/12/16 05:52:03;;;;;;;3.30;2.83;;;4.80;99.90;;;;;;5145074;27;20238;-45
2021/12/16 05:54:47;;;;;;;3.00;2.77;;;4.80;99.90;;;;;;5145378;27;20283;-55
2021/12/16 05:57:32;;;;;;;5.20;3.57;;;4.70;99.90;;;;;;5145768;27;20252;-47
2021/12/16 06:00:25;;;;;;;3.63;2.50;;;4.60;99.90;;;;;;5144409;27;20269;-50
2021/12/16 06:03:10;;;;;;;4.43;3.10;;;4.60;99.90;;;;;;5145656;27;20219;-56
2021/12/16 06:05:54;;;;;;;4.97;3.83;;;4.60;99.90;;;;;;5145747;27;20194;-49
2021/12/16 06:08:39;;;;;;;2.53;2.33;;;4.60;99.90;;;;;;5145679;27;20202;-44
2021/12/16 06:11:29;;;;;;;5.30;2.90;;;4.60;99.90;;;;;;5144961;27;20236;-50
2021/12/16 06:14:28;;;;;;;4.60;3.27;;;4.60;99.90;;;;;;5124168;27;20261;-52
2021/12/16 06:26:35;;;;;;;2.63;2.43;;;4.70;99.90;;;;;;5122921;27;20276;-49
2021/12/16 06:29:20;;;;;;;4.17;3.77;;;4.60;99.90;;;;;;5122039;27;20183;-47
2021/12/16 06:32:05;;;;;;;5.37;3.50;;;4.60;99.90;;;;;;5122904;27;20223;-54
2021/12/16 06:34:49;;;;;;;3.77;3.33;;;4.70;99.90;;;;;;5122936;27;20268;-45
2021/12/16 06:37:34;;;;;;;3.67;2.93;;;4.60;99.90;;;;;;5123470;27;20252;-58
2021/12/16 06:40:20;;;;;;;4.47;3.23;;;4.60;99.90;;;;;;5121667;27;20260;-48
2021/12/16 06:43:07;;;;;;;4.33;2.60;;;4.60;99.90;;;;;;5122035;27;20200;-50
2021/12/16 06:45:53;;;;;;;3.10;2.87;;;4.70;99.90;;;;;;5120400;27;20183;-50
2021/12/16 06:48:40;;;;;;;3.87;2.77;;;4.70;99.90;;;;;;5121865;27;20192;-51
2021/12/16 06:51:16;;;;;;;3.77;2.67;;;4.80;99.90;;;;;;5105544;27;20280;-47
2021/12/16 06:54:05;;;;;;;4.50;2.90;;;4.80;99.90;;;;;;5122034;27;20230;-54
2021/12/16 06:57:13;;;;;;;4.17;3.20;;;4.80;99.90;;;;;;5123238;27;20203;-52
2021/12/16 07:00:02;;;;;;;3.10;2.77;;;4.90;99.90;;;;;;5124088;27;20219;-49
2021/12/16 07:02:57;;;;;;;3.97;3.47;;;4.80;99.90;;;;;;5122758;27;20183;-58
2021/12/16 07:05:41;;;;;;;4.30;2.63;;;4.80;99.90;;;;;;5121890;27;20209;-49
2021/12/16 07:08:26;;;;;;;3.67;2.73;;;4.80;99.90;;;;;;5122814;27;20268;-51
2021/12/16 07:11:11;;;;;;;3.63;3.27;;;4.90;99.90;;;;;;5122902;27;20210;-58
2021/12/16 07:13:59;;;;;;;3.37;2.20;;;4.90;99.90;;;;;;5120389;27;20205;-54
2021/12/16 07:16:48;;;;;;;2.27;2.03;;;4.90;99.90;;;;;;5121944;27;20222;-51
2021/12/16 07:19:34;;;;;;;3.63;2.20;;;4.90;99.90;;;;;;5123927;28;20219;-51
2021/12/16 07:22:20;;;;;;;3.83;3.17;;;4.90;99.90;;;;;;5120180;28;20248;-48
2021/12/16 07:25:06;;;;;;;3.30;2.50;;;4.80;99.90;;;;;;5121522;28;20207;-49
2021/12/16 07:27:51;;;;;;;3.00;2.60;;;4.70;99.90;;;;;;5122806;28;20226;-52
2021/12/16 07:30:40;;;;;;;1.97;1.87;;;4.70;99.90;;;;;;5117656;28;20235;-49
2021/12/16 07:33:26;;;;;;;3.53;2.30;;;4.70;99.90;;;;;;5103305;28;20197;-46
2021/12/16 07:36:13;;;;;;;3.77;2.23;;;4.70;99.90;;;;;;5102800;28;20192;-46
2021/12/16 07:38:57;;;;;;;2.50;2.13;;;4.70;99.90;;;;;;5101806;28;20192;-50
2021/12/16 07:41:31;;;;;;;4.10;2.40;;;4.80;99.90;;;;;;5085423;28;20189;-49
2021/12/16 07:44:16;;;;;;;4.80;2.67;;;4.90;99.90;;;;;;5101972;28;20220;-50
2021/12/16 07:47:05;;;;;;;3.83;2.90;;;4.90;99.90;;;;;;5102399;28;20250;-48
2021/12/16 07:49:49;;;;;;;4.27;3.10;;;4.90;99.90;;;;;;5104524;28;20231;-44
2021/12/16 07:52:35;;;;;;;4.20;2.90;;;4.90;99.90;;;;;;5105765;28;20254;-50
2021/12/16 07:55:20;;;;;;;2.87;2.30;;;4.90;99.90;;;;;;5105722;28;20192;-50
2021/12/16 07:58:05;;;;;;;3.70;2.73;;;4.90;99.90;;;;;;5106878;28;20221;-52
2021/12/16 08:00:51;;;;;;;2.20;2.00;;;5.00;99.90;;;;;;5115387;27;20231;-45
2021/12/16 08:03:36;;;;;;;3.03;2.43;;;5.00;99.90;;;;;;5110299;27;20192;-49
2021/12/16 08:06:23;;;;;;;3.17;2.87;;;5.10;99.90;;;;;;5138235;27;20240;-51
2021/12/16 08:09:09;;;;;;;4.30;2.60;;;5.00;99.90;;;;;;5134927;27;20218;-50
2021/12/16 08:11:53;;;;;;;2.97;2.40;;;5.00;99.90;;;;;;5108043;27;20192;-57
2021/12/16 08:14:39;;;;;;;3.37;3.07;;;5.10;99.90;;;;;;5120624;27;20245;-47
2021/12/16 08:17:23;;;;;;;2.43;2.23;;;5.20;99.90;;;;;;5120751;27;20216;-49
2021/12/16 08:20:10;;;;;;;4.20;2.63;;;5.20;99.90;;;;;;5126690;27;20261;-46
2021/12/16 08:22:57;;;;;;;4.90;3.70;;;5.10;99.90;;;;;;5123550;27;20253;-53
2021/12/16 08:25:42;;;;;;;7.20;5.20;;;5.20;99.90;;;;;;5105636;28;20192;-49
2021/12/16 08:28:28;;;;;;;3.03;2.50;;;5.10;99.90;;;;;;5106172;28;20219;-47
2021/12/16 08:31:12;;;;;;;3.30;2.23;;;5.20;99.90;;;;;;5105649;27;20189;-47
2021/12/16 08:33:58;;;;;;;2.67;2.13;;;5.10;99.90;;;;;;5105983;28;20200;-48
2021/12/16 08:36:42;;;;;;;3.90;2.47;;;5.00;99.90;;;;;;5120323;27;20196;-52
2021/12/16 08:39:27;;;;;;;4.30;3.27;;;5.00;99.90;;;;;;5119694;27;20702;-51
2021/12/16 08:42:12;;;;;;;4.80;3.40;;;5.00;99.90;;;;;;5119830;27;20207;-45
2021/12/16 08:44:58;;;;;;;4.70;3.20;;;5.10;99.90;;;;;;5119866;27;20333;-53
2021/12/16 08:47:43;;;;;;;3.80;3.00;;;4.90;99.90;;;;;;5114070;27;20219;-49
2021/12/16 08:50:33;;;;;;;3.17;2.87;;;4.90;99.90;;;;;;5126637;27;20190;-52
2021/12/16 08:53:19;;;;;;;3.13;2.50;;;4.90;99.90;;;;;;5124668;27;20247;-48
2021/12/16 08:56:06;;;;;;;2.27;2.17;;;4.90;99.90;;;;;;5118922;27;20204;-46
2021/12/16 08:58:50;;;;;;;3.40;2.30;;;4.90;99.90;;;;;;5106284;28;20200;-46
2021/12/16 09:01:48;;;;;;;3.03;2.33;;;4.90;99.90;;;;;;5103533;28;20192;-49
2021/12/16 09:04:33;;;;;;;4.83;4.13;;;5.10;99.90;;;;;;5121861;27;20203;-49
2021/12/16 09:07:17;;;;;;;3.27;2.97;;;5.20;99.90;;;;;;5126548;27;20191;-49
2021/12/16 09:10:03;;;;;;;4.10;2.63;;;5.30;99.90;;;;;;5125274;27;20220;-50
2021/12/16 09:13:03;;;;;;;3.70;2.33;;;5.20;99.90;;;;;;5108796;27;20242;-56
2021/12/16 09:15:57;;;;;;;5.60;3.40;;;5.30;99.90;;;;;;5117127;27;20203;-54
2021/12/16 09:18:42;;;;;;;2.80;2.60;;;5.40;99.90;;;;;;5130233;27;20200;-49
2021/12/16 09:21:31;;;;;;;2.93;2.57;;;5.50;99.90;;;;;;5145932;27;20249;-53
2021/12/16 09:24:16;;;;;;;3.70;3.10;;;5.40;99.90;;;;;;5111945;27;20288;-59
2021/12/16 09:27:01;;;;;;;1.83;1.73;;;5.40;99.90;;;;;;5125617;27;20208;-48
2021/12/16 09:29:46;;;;;;;2.90;2.43;;;5.40;99.90;;;;;;5119170;27;20237;-53
2021/12/16 09:32:32;;;;;;;2.53;2.33;;;5.50;99.90;;;;;;5114549;27;20295;-52
2021/12/16 09:35:16;;;;;;;4.93;2.50;;;5.60;99.90;;;;;;5125461;27;20211;-45
2021/12/16 09:38:03;;;;;;;4.00;3.17;;;5.60;99.90;;;;;;5116551;27;20192;-48
2021/12/16 09:40:53;;;;;;;3.87;3.20;;;5.60;99.90;;;;;;5134032;27;20218;-56
2021/12/16 09:43:42;;;;;;;2.10;1.90;;;5.60;99.90;;;;;;5108834;27;20241;-52
2021/12/16 09:46:28;;;;;;;2.63;2.10;;;5.60;99.90;;;;;;5116195;27;20207;-45
2021/12/16 09:49:14;;;;;;;3.70;2.20;;;5.50;99.90;;;;;;5129115;27;20187;-54
2021/12/16 09:51:59;;;;;;;2.03;1.70;;;5.50;99.90;;;;;;5115889;27;20230;-49
2021/12/16 09:54:45;;;;;;;1.83;1.73;;;5.50;99.90;;;;;;5107626;27;20200;-51
2021/12/16 09:57:31;;;;;;;2.77;2.47;;;5.60;99.90;;;;;;5118055;27;20195;-51
2021/12/16 10:00:22;;;;;;;2.83;1.50;;;5.60;99.90;;;;;;5127076;27;20216;-48
2021/12/16 10:03:07;;;;;;;2.23;1.73;;;5.70;99.90;;;;;;5121064;27;20273;-46
2021/12/16 10:05:51;;;;;;;1.73;1.50;;;5.70;99.90;;;;;;5118717;27;20231;-47
2021/12/16 10:08:36;;;;;;;2.83;2.63;;;5.70;99.90;;;;;;5132160;27;20209;-48
2021/12/16 10:11:21;;;;;;;4.33;1.87;;;5.80;99.90;;;;;;5134890;27;20192;-47
2021/12/16 10:20:19;;;;;;;1.60;1.50;;;5.60;99.90;;;;;;5127174;27;20259;-47
2021/12/16 10:23:08;;;;;;;2.53;2.10;;;5.70;99.90;;;;;;5118247;27;20260;-49
2021/12/16 10:25:54;;;;;;;2.10;1.90;;;5.70;99.90;;;;;;5131471;27;20295;-49
2021/12/16 10:28:42;;;;;;;3.50;2.30;;;5.70;99.90;;;;;;5127510;27;20664;-47
2021/12/16 10:31:35;;;;;;;3.70;2.27;;;5.90;99.90;;;;;;5110405;27;20289;-52
2021/12/16 10:34:19;;;;;;;2.20;1.70;;;5.80;99.90;;;;;;5107983;27;20203;-51
2021/12/16 10:37:03;;;;;;;3.33;1.50;;;5.90;99.90;;;;;;5124504;27;20214;-47
2021/12/16 10:39:48;;;;;;;1.53;1.43;;;5.80;99.90;;;;;;5122249;27;20288;-49
2021/12/16 10:42:48;;;;;;;2.53;1.23;;;5.80;99.90;;;;;;5129314;27;20210;-53
2021/12/16 10:45:41;;;;;;;1.83;1.73;;;5.80;99.90;;;;;;5108300;27;20252;-47
2021/12/16 10:48:41;;;;;;;1.73;1.63;;;5.80;99.90;;;;;;5106817;27;20218;-48
2021/12/16 10:51:31;;;;;;;2.63;1.90;;;5.80;99.90;;;;;;5119667;27;20253;-47
2021/12/16 10:54:22;;;;;;;6.40;1.87;;;5.80;99.90;;;;;;5112035;27;20309;-50
2021/12/16 10:57:12;;;;;;;1.77;1.67;;;5.70;99.90;;;;;;5143976;27;20210;-49
2021/12/16 11:00:10;;;;;;;2.93;2.63;;;5.80;99.90;;;;;;5117539;27;20215;-48
2021/12/16 11:02:55;;;;;;;3.00;2.70;;;5.90;99.90;;;;;;5112722;27;20224;-47
2021/12/16 11:05:39;;;;;;;4.23;2.60;;;6.00;99.90;;;;;;5113873;27;20241;-46
2021/12/16 11:08:24;;;;;;;3.33;2.40;;;6.00;99.90;;;;;;5147596;27;20262;-48
2021/12/16 11:11:12;;;;;;;2.30;1.90;;;6.00;99.90;;;;;;5118854;27;20195;-50
2021/12/16 11:14:06;;;;;;;2.40;2.20;;;6.20;99.90;;;;;;5120928;27;20211;-53
2021/12/16 11:16:59;;;;;;;3.10;1.90;;;6.10;99.90;;;;;;5129827;27;20194;-51
2021/12/16 11:19:44;;;;;;;4.87;2.73;;;6.10;99.90;;;;;;5109194;27;20231;-50
2021/12/16 11:22:32;;;;;;;3.73;2.20;;;6.20;99.90;;;;;;5131639;27;20190;-47
2021/12/16 11:25:22;;;;;;;2.27;2.03;;;6.30;99.90;;;;;;5117358;27;20198;-52
2021/12/16 11:28:11;;;;;;;2.90;1.87;;;6.40;99.90;;;;;;5125196;27;20242;-52
2021/12/16 11:30:57;;;;;;;4.00;2.90;;;6.30;99.90;;;;;;5139517;27;20212;-49
2021/12/16 11:33:46;;;;;;;2.93;2.40;;;6.20;99.90;;;;;;5135740;27;20743;-48
2021/12/16 11:36:38;;;;;;;2.90;2.40;;;6.40;99.90;;;;;;5134091;27;20191;-51
2021/12/16 11:39:29;;;;;;;2.60;1.77;;;6.60;99.90;;;;;;5127993;27;20284;-47
2021/12/16 11:42:14;;;;;;;2.63;2.43;;;6.40;99.90;;;;;;5133949;27;20209;-46
2021/12/16 11:44:59;;;;;;;4.17;2.73;;;6.60;99.90;;;;;;5121520;28;20195;-55
2021/12/16 11:47:55;;;;;;;3.80;2.60;;;6.70;99.90;;;;;;5122874;28;20195;-51
2021/12/16 11:50:41;;;;;;;4.47;3.03;;;6.70;99.90;;;;;;5121746;28;20196;-48
2021/12/16 11:53:35;;;;;;;3.90;3.03;;;6.60;99.90;;;;;;5123799;28;20227;-49
2021/12/16 11:56:43;;;;;;;5.93;3.63;;;6.50;99.90;;;;;;5124706;28;20227;-55
2021/12/16 11:59:10;;;;;;;5.83;3.10;;;6.20;99.90;;;;;;5105977;28;20275;-50
2021/12/16 12:01:55;;;;;;;3.47;2.63;;;6.30;99.90;;;;;;5123394;28;20245;-45
2021/12/16 12:04:39;;;;;;;4.30;3.30;;;6.50;99.90;;;;;;5124599;28;20200;-57
2021/12/16 12:07:11;;;;;;;5.47;2.90;;;6.30;99.90;;;;;;5106428;28;20192;-47
2021/12/16 12:09:56;;;;;;;5.40;2.43;;;6.40;99.90;;;;;;5123374;28;20269;-48
2021/12/16 12:12:46;;;;;;;4.63;2.53;;;6.70;99.90;;;;;;5122761;28;20330;-48
2021/12/16 12:15:30;;;;;;;5.83;3.03;;;6.90;99.90;;;;;;5123061;28;20199;-49
2021/12/16 12:18:30;;;;;;;2.67;2.20;;;7.20;99.90;;;;;;5123744;28;20223;-50
2021/12/16 12:21:15;;;;;;;3.73;2.20;;;7.30;99.90;;;;;;5105504;28;20309;-47
2021/12/16 12:23:41;;;;;;;8.90;4.60;;;7.20;99.90;;;;;;5105794;28;20225;-46
2021/12/16 12:26:14;;;;;;;3.57;2.63;;;7.20;99.90;;;;;;5105839;28;20196;-48
2021/12/16 12:28:40;;;;;;;7.07;3.30;;;7.10;99.90;;;;;;5105937;28;20184;-51
2021/12/16 12:31:05;;;;;;;7.47;3.70;;;7.20;99.90;;;;;;5107274;28;20185;-49
2021/12/16 12:33:31;;;;;;;3.97;2.67;;;7.30;99.90;;;;;;5107033;28;20195;-54
2021/12/16 12:35:57;;;;;;;6.93;2.80;;;7.20;99.90;;;;;;5108500;27;20268;-51
2021/12/16 12:38:23;;;;;;;4.30;2.33;;;7.20;99.90;;;;;;5108927;27;20187;-52
2021/12/16 12:40:49;;;;;;;4.80;2.60;;;7.30;99.90;;;;;;5109857;27;20216;-46
2021/12/16 12:43:16;;;;;;;3.07;2.50;;;7.10;99.90;;;;;;5109321;27;20189;-47
2021/12/16 12:45:42;;;;;;;3.83;2.63;;;7.20;99.90;;;;;;5109784;27;20264;-46
2021/12/16 12:48:17;;;;;;;4.80;3.20;;;7.10;99.90;;;;;;5111302;27;20207;-51
2021/12/16 12:50:46;;;;;;;5.00;3.07;;;6.90;99.90;;;;;;5110265;27;20190;-52
2021/12/16 12:53:19;;;;;;;3.13;2.63;;;7.10;99.90;;;;;;5109566;27;20340;-52
2021/12/16 12:55:49;;;;;;;4.73;2.97;;;7.20;99.90;;;;;;5109005;27;20185;-49
2021/12/16 12:58:21;;;;;;;3.37;2.60;;;7.20;99.90;;;;;;5109339;27;20207;-56
2021/12/16 13:00:47;;;;;;;2.90;2.37;;;7.30;99.90;;;;;;5125674;27;20217;-56
2021/12/16 13:03:28;;;;;;;5.37;3.07;;;7.40;99.90;;;;;;5107662;27;20188;-53
2021/12/16 13:06:00;;;;;;;2.57;2.37;;;7.60;99.90;;;;;;5127181;27;20228;-55
2021/12/16 13:08:40;;;;;;;5.90;2.93;;;7.30;99.90;;;;;;5126042;27;20215;-53
2021/12/16 13:11:17;;;;;;;5.23;3.07;;;7.10;99.90;;;;;;5125882;27;20241;-59
2021/12/16 13:14:25;;;;;;;3.87;2.23;;;6.90;99.90;;;;;;5126036;27;20218;-55
2021/12/16 13:28:58;;;;;;;3.47;2.67;;;6.80;99.90;;;;;;5127248;27;20195;-50
2021/12/16 13:35:05;;;;;;;3.03;2.23;;;6.50;99.90;;;;;;5127537;27;20203;-48
2021/12/16 13:37:54;;;;;;;5.97;2.73;;;6.50;99.90;;;;;;5125817;27;20199;-53
2021/12/16 13:40:43;;;;;;;5.77;3.23;;;6.50;99.90;;;;;;5126445;27;20215;-48
2021/12/16 13:43:29;;;;;;;6.67;2.63;;;6.60;99.90;;;;;;5125536;27;20276;-49
2021/12/16 13:46:29;;;;;;;8.53;4.07;;;6.60;99.90;;;;;;5125418;27;20200;-58
2021/12/16 14:03:28;;;;;;;6.17;3.30;;;6.40;99.90;;;;;;5125051;27;20238;-56
2021/12/16 14:08:43;;;;;;;3.40;3.10;;;6.30;99.90;;;;;;5124486;27;20275;-53
2021/12/16 14:23:26;;;;;;;2.90;2.37;;;6.10;99.90;;;;;;5124851;27;20236;-56
2021/12/16 14:26:15;;;;;;;5.37;3.10;;;6.20;99.90;;;;;;5107208;27;20192;-51
2021/12/16 14:39:58;;;;;;;3.83;3.33;;;6.00;99.90;;;;;;5123939;27;20215;-56
2021/12/16 14:46:02;;;;;;;2.63;2.33;;;6.00;99.90;;;;;;5065882;28;20178;-55
2021/12/16 14:48:32;;;;;;;5.47;2.87;;;6.00;99.90;;;;;;5064958;28;20300;-52
2021/12/16 14:51:04;;;;;;;5.83;3.00;;;6.00;99.90;;;;;;5065286;28;20189;-52
2021/12/16 14:53:29;;;;;;;4.23;2.60;;;6.00;99.90;;;;;;5065045;28;20240;-54
2021/12/16 14:56:07;;;;;;;6.00;3.40;;;6.00;99.90;;;;;;5049020;28;20197;-58
2021/12/16 14:58:33;;;;;;;4.43;3.80;;;6.00;99.90;;;;;;5065090;28;20185;-48
2021/12/16 15:01:17;;;;;;;3.20;2.90;;;6.00;99.90;;;;;;5048358;28;20222;-51
2021/12/16 15:03:45;;;;;;;5.30;3.00;;;6.00;99.90;;;;;;5064779;28;20309;-58
2021/12/16 15:06:21;;;;;;;6.77;4.17;;;6.00;99.90;;;;;;5065405;28;20223;-55
2021/12/16 15:09:10;;;;;;;5.90;2.87;;;6.00;99.90;;;;;;5065650;28;20185;-57
2021/12/16 15:11:55;;;;;;;4.40;3.13;;;6.00;99.90;;;;;;5065244;28;20186;-57
2021/12/16 15:31:47;;;;;;;4.03;3.00;;;6.00;99.90;;;;;;5106654;27;20264;-49
2021/12/16 15:40:37;;;;;;;5.30;3.83;;;6.00;99.90;;;;;;5122951;28;20212;-46
2021/12/16 15:43:08;;;;;;;7.17;3.57;;;6.10;99.90;;;;;;5123918;27;20314;-49
2021/12/16 15:45:48;;;;;;;4.57;3.20;;;6.00;99.90;;;;;;5123472;28;20192;-52
2021/12/16 15:48:24;;;;;;;15.17;3.93;;;6.00;99.90;;;;;;5123871;28;20184;-53
2021/12/16 15:50:52;;;;;;;3.73;2.67;;;6.00;99.90;;;;;;5107205;28;20192;-45
2021/12/16 15:53:29;;;;;;;6.50;3.13;;;6.10;99.90;;;;;;5106087;28;20215;-49
2021/12/16 15:56:06;;;;;;;7.87;3.80;;;6.00;99.90;;;;;;5123967;28;20196;-49
2021/12/16 15:58:40;;;;;;;7.93;4.47;;;6.00;99.90;;;;;;5124220;28;20268;-59
2021/12/16 16:01:20;;;;;;;6.17;3.87;;;5.90;99.90;;;;;;5123219;28;20266;-60
2021/12/16 16:03:47;;;;;;;7.13;3.97;;;5.90;99.90;;;;;;5105935;28;20192;-50
2021/12/16 16:06:15;;;;;;;5.50;3.07;;;5.90;99.90;;;;;;5123416;28;20196;-51
2021/12/16 16:08:49;;;;;;;7.17;3.83;;;5.80;99.90;;;;;;5123053;28;20253;-56
2021/12/16 16:11:19;;;;;;;4.00;3.60;;;5.80;99.90;;;;;;5125828;27;20191;-53
2021/12/16 16:13:52;;;;;;;4.10;3.70;;;5.80;99.90;;;;;;5127454;27;20256;-52
2021/12/16 16:16:23;;;;;;;7.87;4.37;;;5.80;99.90;;;;;;5128017;27;20196;-52
2021/12/16 16:18:55;;;;;;;5.63;3.57;;;5.80;99.90;;;;;;5109187;27;20176;-53
2021/12/16 16:21:32;;;;;;;3.97;3.23;;;5.70;99.90;;;;;;5107423;27;20216;-50
2021/12/16 16:24:04;;;;;;;4.40;2.90;;;5.70;99.90;;;;;;5108764;27;20191;-45
2021/12/16 16:26:32;;;;;;;8.73;4.77;;;5.70;99.90;;;;;;5108985;27;20185;-49
2021/12/16 16:29:05;;;;;;;6.40;3.57;;;5.70;99.90;;;;;;5109488;27;20180;-54
2021/12/16 16:31:33;;;;;;;5.47;3.53;;;5.70;99.90;;;;;;5104561;27;20197;-52
2021/12/16 16:34:00;;;;;;;5.60;3.80;;;5.70;99.90;;;;;;5108070;27;20187;-51
2021/12/16 16:36:29;;;;;;;5.20;4.10;;;5.80;99.90;;;;;;5109620;27;20261;-54
2021/12/16 16:39:06;;;;;;;5.97;3.80;;;5.80;99.90;;;;;;5109143;27;20182;-57
2021/12/16 16:41:36;;;;;;;5.60;3.53;;;5.80;99.90;;;;;;5108699;27;20188;-44
2021/12/16 16:44:12;;;;;;;6.47;4.07;;;5.80;99.90;;;;;;5106250;27;20272;-48
2021/12/16 16:46:51;;;;;;;6.90;3.57;;;5.90;99.90;;;;;;5109009;27;20580;-53
2021/12/16 16:49:29;;;;;;;7.53;4.07;;;5.90;99.90;;;;;;5141441;27;20198;-48
2021/12/16 16:52:01;;;;;;;8.50;4.23;;;5.90;99.90;;;;;;5108312;27;20207;-58
2021/12/16 16:54:37;;;;;;;6.43;3.77;;;5.80;99.90;;;;;;5108285;27;20173;-48
2021/12/16 16:57:08;;;;;;;5.20;3.63;;;5.90;99.90;;;;;;5113950;27;20172;-52
2021/12/16 16:59:48;;;;;;;7.10;4.37;;;5.80;99.90;;;;;;5121329;27;20236;-49
2021/12/16 17:02:28;;;;;;;8.13;4.00;;;5.90;99.90;;;;;;5119990;27;20192;-45
2021/12/16 17:05:14;;;;;;;6.10;4.17;;;5.90;99.90;;;;;;5110814;27;20172;-48
2021/12/16 17:07:47;;;;;;;3.60;3.27;;;6.00;99.90;;;;;;5141350;27;20184;-49
2021/12/16 17:10:28;;;;;;;8.20;4.17;;;6.00;99.90;;;;;;5117036;27;20185;-52
2021/12/16 17:13:21;;;;;;;5.70;3.27;;;6.00;99.90;;;;;;5117127;27;20187;-54
2021/12/16 17:18:26;;;;;;;5.23;3.90;;;6.00;99.90;;;;;;5125548;27;20181;-51
2021/12/16 17:20:56;;;;;;;5.57;3.17;;;6.00;99.90;;;;;;5108779;27;20200;-46
2021/12/16 17:23:27;;;;;;;5.47;3.57;;;5.90;99.90;;;;;;5106793;27;20561;-47
2021/12/16 17:25:53;;;;;;;6.37;4.30;;;6.00;99.90;;;;;;5108040;27;20191;-58
2021/12/16 17:28:19;;;;;;;5.13;3.03;;;6.00;99.90;;;;;;5108162;27;20181;-49
2021/12/16 17:30:46;;;;;;;7.83;3.57;;;6.00;99.90;;;;;;5108596;27;20172;-54
2021/12/16 17:33:26;;;;;;;8.47;4.17;;;6.00;99.90;;;;;;5107484;27;20203;-46
2021/12/16 17:35:53;;;;;;;8.17;4.67;;;6.00;99.90;;;;;;5123899;27;20187;-52
2021/12/16 17:38:26;;;;;;;6.07;3.43;;;6.00;99.90;;;;;;5108675;27;20528;-56
2021/12/16 17:41:05;;;;;;;7.83;4.03;;;6.00;99.90;;;;;;5107985;27;20204;-51
2021/12/16 17:43:42;;;;;;;9.13;4.60;;;6.00;99.90;;;;;;5107025;27;20184;-51
2021/12/16 17:46:19;;;;;;;9.83;4.70;;;6.00;99.90;;;;;;5107749;27;20217;-52
2021/12/16 17:48:48;;;;;;;11.53;5.67;;;6.00;99.90;;;;;;5107872;27;20176;-51
2021/12/16 17:51:18;;;;;;;9.63;5.33;;;6.00;99.90;;;;;;5107934;27;20180;-52
2021/12/16 17:53:47;;;;;;;7.43;4.70;;;6.00;99.90;;;;;;5103375;27;20241;-48
2021/12/16 17:56:13;;;;;;;9.53;5.17;;;6.00;99.90;;;;;;5107698;27;20177;-52
2021/12/16 17:58:42;;;;;;;9.00;5.00;;;6.00;99.90;;;;;;5107195;27;20241;-46
2021/12/16 18:01:28;;;;;;;8.10;5.50;;;6.10;99.90;;;;;;5107539;27;20208;-54
2021/12/16 18:03:58;;;;;;;7.93;3.27;;;6.00;99.90;;;;;;5107867;27;20172;-53
2021/12/16 18:06:32;;;;;;;7.37;3.87;;;6.00;99.90;;;;;;5123682;27;20203;-53
2021/12/16 18:09:09;;;;;;;10.23;5.97;;;6.00;99.90;;;;;;5104611;27;20279;-53
2021/12/16 18:11:41;;;;;;;5.83;4.40;;;6.00;99.90;;;;;;5107121;27;20192;-53
2021/12/16 18:14:16;;;;;;;9.90;4.53;;;6.00;99.90;;;;;;5101097;27;20176;-53
2021/12/16 18:16:55;;;;;;;7.13;3.67;;;6.00;99.90;;;;;;5120331;27;20259;-45
2021/12/16 18:19:36;;;;;;;10.20;5.13;;;6.00;99.90;;;;;;5104693;27;20172;-46